createdAt,value
2023-04-17T00:00:23.629Z,7.71
2023-04-17T00:05:13.807Z,7.71
2023-04-17T00:10:06.425Z,7.73
2023-04-17T00:14:56.170Z,7.70
2023-04-17T00:19:47.816Z,7.71
2023-04-17T00:24:37.396Z,7.68
2023-04-17T00:51:28.160Z,7.36
2023-04-17T00:56:17.981Z,7.36
2023-04-17T01:01:07.810Z,7.38
2023-04-17T01:05:59.780Z,7.31
2023-04-17T01:10:52.559Z,7.20
2023-04-17T01:15:43.230Z,7.17
2023-04-17T01:20:34.195Z,7.19
2023-04-17T01:25:26.693Z,7.17
2023-04-17T01:30:16.955Z,7.23
2023-04-17T01:35:14.954Z,7.18
2023-04-17T01:40:07.206Z,7.15
2023-04-17T01:44:59.968Z,7.24
2023-04-17T01:49:49.969Z,7.21
2023-04-17T01:54:41.979Z,7.19
2023-04-17T01:59:31.656Z,7.24
2023-04-17T02:04:28.946Z,7.14
2023-04-17T02:09:19.020Z,7.18
2023-04-17T02:14:08.548Z,7.20
2023-04-17T02:19:00.157Z,7.21
2023-04-17T02:23:52.392Z,7.17
2023-04-17T02:28:42.661Z,7.14
2023-04-17T02:33:32.529Z,7.21
2023-04-17T02:38:24.779Z,7.16
2023-04-17T02:43:17.508Z,7.15
2023-04-17T02:48:07.418Z,7.16
2023-04-17T02:52:57.466Z,7.14
2023-04-17T02:57:47.078Z,7.11
2023-04-17T03:02:40.015Z,7.07
2023-04-17T03:07:30.254Z,7.07
2023-04-17T03:12:20.406Z,6.99
2023-04-17T03:17:14.354Z,7.00
2023-04-17T03:22:07.288Z,7.00
2023-04-17T03:26:57.738Z,7.08
2023-04-17T03:31:51.254Z,7.10
2023-04-17T03:36:41.267Z,7.07
2023-04-17T03:41:34.625Z,7.00
2023-04-17T03:46:24.545Z,6.99
2023-04-17T03:51:15.614Z,6.87
2023-04-17T03:56:06.256Z,6.95
2023-04-17T04:01:04.162Z,6.94
2023-04-17T04:05:58.401Z,6.94
2023-04-17T04:10:48.348Z,6.96
2023-04-17T04:15:43.567Z,6.86
2023-04-17T04:20:37.609Z,6.96
2023-04-17T04:25:36.835Z,7.01
2023-04-17T04:30:39.854Z,6.93
2023-04-17T04:35:47.640Z,6.92
2023-04-17T04:40:41.282Z,6.94
2023-04-17T04:45:31.309Z,6.95
2023-04-17T04:50:24.303Z,7.00
2023-04-17T04:55:19.890Z,6.91
2023-04-17T05:00:15.585Z,6.88
2023-04-17T05:05:09.558Z,6.91
2023-04-17T05:09:59.770Z,6.80
2023-04-17T05:14:54.227Z,6.81
2023-04-17T05:19:44.514Z,6.97
2023-04-17T05:24:34.273Z,6.92
2023-04-17T05:29:24.953Z,6.98
2023-04-17T05:34:20.659Z,7.03
2023-04-17T05:39:10.703Z,7.08
2023-04-17T05:44:01.991Z,7.05
2023-04-17T05:48:51.719Z,7.05
2023-04-17T05:53:45.061Z,7.11
2023-04-17T05:58:36.303Z,6.95
2023-04-17T06:03:28.090Z,7.00
2023-04-17T06:08:32.664Z,6.99
2023-04-17T06:13:25.355Z,7.11
2023-04-17T06:18:17.945Z,7.06
2023-04-17T06:23:07.684Z,7.20
2023-04-17T06:27:57.294Z,7.16
2023-04-17T06:32:51.216Z,7.31
2023-04-17T06:37:42.521Z,7.40
2023-04-17T06:42:34.101Z,7.29
2023-04-17T06:47:25.302Z,7.55
2023-04-17T06:52:22.382Z,7.51
2023-04-17T06:57:14.545Z,7.49
2023-04-17T07:02:05.300Z,7.47
2023-04-17T07:06:55.063Z,7.58
2023-04-17T07:11:49.342Z,7.51
2023-04-17T07:16:39.237Z,7.52
2023-04-17T07:21:29.681Z,7.55
2023-04-17T07:26:19.650Z,7.51
2023-04-17T07:31:15.901Z,7.49
2023-04-17T07:36:08.209Z,7.31
2023-04-17T07:40:58.039Z,7.47
2023-04-17T07:45:49.596Z,7.36
2023-04-17T07:50:41.689Z,7.48
2023-04-17T07:55:31.476Z,7.67
2023-04-17T08:00:21.788Z,7.71
2023-04-17T08:05:12.322Z,7.81
2023-04-17T08:10:05.951Z,7.76
2023-04-17T08:14:56.381Z,7.91
2023-04-17T08:19:46.230Z,7.81
2023-04-17T08:24:35.947Z,7.91
2023-04-17T08:29:28.253Z,7.99
2023-04-17T08:34:18.136Z,7.90
2023-04-17T08:39:10.354Z,7.85
2023-04-17T08:44:02.265Z,7.93
2023-04-17T08:48:54.541Z,7.84
2023-04-17T08:53:44.115Z,7.78
2023-04-17T08:58:37.446Z,7.81
2023-04-17T09:03:27.436Z,7.81
2023-04-17T09:08:21.065Z,7.91
2023-04-17T09:13:14.591Z,8.02
2023-04-17T09:18:04.506Z,8.06
2023-04-17T09:23:03.429Z,8.06
2023-04-17T09:27:56.539Z,8.16
2023-04-17T09:32:48.421Z,8.22
2023-04-17T09:37:52.632Z,8.20
2023-04-17T09:42:58.655Z,8.42
2023-04-17T09:47:51.319Z,8.35
2023-04-17T09:52:41.860Z,8.43
2023-04-17T09:57:31.541Z,8.73
2023-04-17T10:02:23.998Z,9.13
2023-04-17T10:07:16.773Z,9.40
2023-04-17T10:12:08.402Z,9.77
2023-04-17T10:16:58.436Z,9.97
2023-04-17T10:21:50.931Z,10.13
2023-04-17T10:26:46.617Z,10.29
2023-04-17T10:31:51.536Z,10.70
2023-04-17T10:36:56.650Z,10.75
2023-04-17T10:42:02.412Z,10.75
2023-04-17T10:46:54.614Z,10.63
2023-04-17T10:51:46.482Z,10.84
2023-04-17T10:56:38.927Z,10.90
2023-04-17T11:01:30.404Z,10.94
2023-04-17T11:06:24.308Z,11.42
2023-04-17T11:11:14.600Z,12.17
2023-04-17T11:16:07.741Z,12.38
2023-04-17T11:20:59.484Z,12.06
2023-04-17T11:25:51.817Z,11.98
2023-04-17T11:30:45.257Z,11.72
2023-04-17T11:35:36.154Z,12.06
2023-04-17T11:40:29.049Z,12.32
2023-04-17T11:45:22.295Z,12.31
2023-04-17T11:50:13.687Z,12.67
2023-04-17T11:55:03.617Z,13.19
2023-04-17T11:59:54.646Z,13.10
2023-04-17T12:04:50.307Z,13.22
2023-04-17T12:09:39.935Z,13.53
2023-04-17T12:14:32.746Z,14.11
2023-04-17T12:19:26.918Z,13.95
2023-04-17T12:24:22.050Z,13.53
2023-04-17T12:29:12.038Z,13.46
2023-04-17T12:34:02.140Z,13.53
2023-04-17T12:38:52.066Z,13.35
2023-04-17T12:43:44.568Z,13.35
2023-04-17T12:48:39.475Z,13.49
2023-04-17T12:53:31.788Z,13.40
2023-04-17T12:58:21.510Z,13.60
2023-04-17T13:03:16.188Z,13.61
2023-04-17T13:08:06.995Z,13.47
2023-04-17T13:12:57.536Z,13.07
2023-04-17T13:17:47.698Z,13.66
2023-04-17T13:22:40.515Z,13.72
2023-04-17T13:27:35.602Z,13.93
2023-04-17T13:32:28.894Z,14.16
2023-04-17T13:37:19.141Z,14.13
2023-04-17T13:42:14.073Z,14.28
2023-04-17T13:47:04.076Z,14.50
2023-04-17T13:51:54.187Z,14.69
2023-04-17T13:56:43.885Z,14.61
2023-04-17T14:01:36.452Z,14.73
2023-04-17T14:06:28.390Z,14.72
2023-04-17T14:11:19.532Z,14.55
2023-04-17T14:16:09.468Z,14.07
2023-04-17T14:21:04.012Z,14.29
2023-04-17T14:25:53.638Z,14.26
2023-04-17T14:30:43.593Z,14.15
2023-04-17T14:35:36.317Z,14.57
2023-04-17T14:40:30.371Z,14.48
2023-04-17T14:45:20.131Z,14.71
2023-04-17T14:50:10.659Z,14.54
2023-04-17T14:55:00.404Z,14.95
2023-04-17T14:59:53.116Z,15.05
2023-04-17T15:04:48.652Z,15.06
2023-04-17T15:09:38.461Z,15.20
2023-04-17T15:14:30.076Z,14.87
2023-04-17T15:19:22.482Z,14.99
2023-04-17T15:24:14.033Z,14.98
2023-04-17T15:29:05.490Z,14.94
2023-04-17T15:33:55.219Z,14.83
2023-04-17T15:38:47.642Z,15.08
2023-04-17T15:43:39.774Z,15.16
2023-04-17T15:48:30.064Z,14.97
2023-04-17T15:53:19.926Z,14.95
2023-04-17T15:58:12.152Z,15.22
2023-04-17T16:03:03.466Z,15.37
2023-04-17T16:07:53.368Z,15.42
2023-04-17T16:12:43.525Z,15.22
2023-04-17T16:17:35.909Z,14.87
2023-04-17T16:22:25.980Z,14.60
2023-04-17T16:27:24.165Z,14.35
2023-04-17T16:32:14.638Z,14.45
2023-04-17T16:37:06.953Z,14.16
2023-04-17T16:41:57.959Z,13.94
2023-04-17T16:51:42.034Z,13.92
2023-04-17T16:56:34.255Z,14.02
2023-04-17T17:01:23.994Z,13.90
2023-04-17T17:06:13.697Z,13.70
2023-04-17T17:11:03.772Z,13.73
2023-04-17T17:15:58.294Z,13.48
2023-04-17T17:20:48.278Z,13.28
2023-04-17T17:25:38.315Z,13.48
2023-04-17T17:30:28.243Z,13.24
2023-04-17T17:35:20.604Z,13.32
2023-04-17T17:40:10.994Z,13.47
2023-04-17T17:45:00.641Z,13.47
2023-04-17T17:49:52.724Z,13.16
2023-04-17T17:54:45.156Z,12.77
2023-04-17T17:59:34.867Z,12.88
2023-04-17T18:04:29.371Z,13.01
2023-04-17T18:09:20.692Z,12.86
2023-04-17T18:14:13.491Z,12.90
2023-04-17T18:19:05.061Z,13.04
2023-04-17T18:23:56.216Z,12.77
2023-04-17T18:28:45.864Z,12.72
2023-04-17T18:33:38.179Z,12.72
2023-04-17T18:38:27.748Z,12.64
2023-04-17T18:43:17.278Z,12.61
2023-04-17T18:48:07.117Z,12.49
2023-04-17T18:52:59.843Z,12.15
2023-04-17T18:57:49.518Z,11.95
2023-04-17T19:02:41.566Z,11.77
2023-04-17T19:07:32.322Z,11.82
2023-04-17T19:12:26.082Z,11.75
2023-04-17T19:17:16.242Z,11.51
2023-04-17T19:22:06.142Z,11.55
2023-04-17T19:26:58.003Z,11.51
2023-04-17T19:31:51.661Z,11.31
2023-04-17T19:36:42.755Z,11.20
2023-04-17T19:41:32.678Z,11.21
2023-04-17T19:46:22.876Z,11.10
2023-04-17T19:51:16.002Z,10.91
2023-04-17T19:56:08.276Z,10.93
2023-04-17T20:00:58.632Z,10.85
2023-04-17T20:05:48.189Z,10.82
2023-04-17T20:10:40.399Z,10.78
2023-04-17T20:15:30.039Z,10.73
2023-04-17T20:20:19.792Z,10.55
2023-04-17T20:25:11.531Z,10.49
2023-04-17T20:30:03.952Z,10.37
2023-04-17T20:34:55.387Z,10.30
2023-04-17T20:39:47.619Z,10.20
2023-04-17T20:44:37.530Z,10.10
2023-04-17T20:49:32.070Z,9.98
2023-04-17T20:54:26.363Z,10.04
2023-04-17T20:59:16.002Z,9.91
2023-04-17T21:04:05.999Z,9.70
2023-04-17T21:08:58.312Z,9.69
2023-04-17T21:13:49.035Z,9.72
2023-04-17T21:18:41.586Z,9.62
2023-04-17T21:23:31.384Z,9.50
2023-04-17T21:28:23.832Z,9.40
2023-04-17T21:33:13.517Z,9.35
2023-04-17T21:38:03.059Z,9.22
2023-04-17T21:42:52.647Z,9.24
2023-04-17T21:47:46.034Z,9.21
2023-04-17T21:52:35.906Z,9.01
2023-04-17T21:57:25.485Z,9.00
2023-04-17T22:02:15.021Z,8.86
2023-04-17T22:07:09.076Z,8.91
2023-04-17T22:11:58.997Z,8.86
2023-04-17T22:16:50.640Z,8.73
2023-04-17T22:21:40.288Z,8.73
2023-04-17T22:26:57.357Z,8.63
2023-04-17T22:32:08.373Z,8.58
2023-04-17T22:36:57.927Z,8.48
2023-04-17T22:41:47.573Z,8.43
2023-04-17T22:46:49.792Z,8.41
2023-04-17T22:51:55.495Z,8.34
2023-04-17T22:57:12.789Z,8.29
2023-04-17T23:02:23.470Z,8.20
2023-04-17T23:07:31.722Z,8.03
2023-04-17T23:12:21.310Z,8.15
2023-04-17T23:17:10.836Z,8.11
2023-04-17T23:22:03.794Z,8.06
2023-04-17T23:26:55.200Z,8.05
2023-04-17T23:31:45.762Z,7.92
2023-04-17T23:36:35.540Z,7.93
2023-04-17T23:41:29.820Z,7.92
2023-04-17T23:46:19.442Z,7.89
2023-04-17T23:51:09.133Z,7.82
2023-04-17T23:55:58.757Z,7.79
